CFG29G EBBR-EDDF
Flight info
| Callsign | CFG29G |
|---|---|
| Flight time | 0h 53m |
| Altitude | 23000 |
| Route | SPI T180 NIVNU T847 IMCOM IMCOM1A |
| Aircraft | A321/M-SDE3FGHIRWY/LB1 |
Departure
| Time | 2026-05-07 18:28 |
|---|---|
| Airport | Brussels Airport (EBBR) |
Arrival
| Time | 2026-05-07 19:22 |
|---|---|
| Airport | Frankfurt Main Airport (EDDF) |
| Time | Latitude | Longitude | Altitude | Speed | Heading |
|---|---|---|---|---|---|
| 2026-05-07 18:10 | 50.90535 | 4.49032 | 126 ft | 0 kts | 191° |
| 2026-05-07 18:17 | 50.90541 | 4.49033 | 126 ft | 3 kts | 189° |
| 2026-05-07 18:17 | 50.90561 | 4.49038 | 126 ft | 3 kts | 187° |
| 2026-05-07 18:18 | 50.90581 | 4.49041 | 126 ft | 3 kts | 182° |
| 2026-05-07 18:18 | 50.90601 | 4.49042 | 125 ft | 3 kts | 176° |
| 2026-05-07 18:18 | 50.90621 | 4.49038 | 124 ft | 3 kts | 165° |
| 2026-05-07 18:18 | 50.90630 | 4.49034 | 125 ft | 0 kts | 161° |
| 2026-05-07 18:21 | 50.90621 | 4.49052 | 124 ft | 4 kts | 111° |
| 2026-05-07 18:21 | 50.90646 | 4.49137 | 126 ft | 11 kts | 21° |
| 2026-05-07 18:22 | 50.90699 | 4.49106 | 127 ft | 7 kts | 344° |
| 2026-05-07 18:22 | 50.90714 | 4.49107 | 126 ft | 6 kts | 6° |
| 2026-05-07 18:22 | 50.90738 | 4.49134 | 129 ft | 0 kts | 53° |
| 2026-05-07 18:22 | 50.90742 | 4.49143 | 128 ft | 4 kts | 54° |
| 2026-05-07 18:23 | 50.90769 | 4.49231 | 132 ft | 12 kts | 65° |
| 2026-05-07 18:23 | 50.90804 | 4.49350 | 126 ft | 12 kts | 65° |
| 2026-05-07 18:23 | 50.90821 | 4.49408 | 126 ft | 5 kts | 65° |
| 2026-05-07 18:23 | 50.90834 | 4.49456 | 127 ft | 4 kts | 65° |
| 2026-05-07 18:24 | 50.90841 | 4.49480 | 127 ft | 3 kts | 65° |
| 2026-05-07 18:24 | 50.90848 | 4.49505 | 128 ft | 2 kts | 65° |
| 2026-05-07 18:24 | 50.90853 | 4.49521 | 127 ft | 1 kts | 65° |
| 2026-05-07 18:24 | 50.90854 | 4.49525 | 127 ft | 0 kts | 65° |
| 2026-05-07 18:25 | 50.90855 | 4.49526 | 127 ft | 0 kts | 65° |
| 2026-05-07 18:25 | 50.90867 | 4.49570 | 126 ft | 9 kts | 65° |
| 2026-05-07 18:25 | 50.90909 | 4.49714 | 122 ft | 17 kts | 65° |
| 2026-05-07 18:25 | 50.90952 | 4.49822 | 123 ft | 10 kts | 44° |
| 2026-05-07 18:26 | 50.91005 | 4.49887 | 122 ft | 10 kts | 32° |
| 2026-05-07 18:26 | 50.91076 | 4.49939 | 121 ft | 12 kts | 21° |
| 2026-05-07 18:26 | 50.91135 | 4.49892 | 122 ft | 9 kts | 285° |
| 2026-05-07 18:26 | 50.91120 | 4.49813 | 123 ft | 6 kts | 245° |
| 2026-05-07 18:27 | 50.91108 | 4.49774 | 124 ft | 2 kts | 245° |
| 2026-05-07 18:27 | 50.91107 | 4.49770 | 124 ft | 0 kts | 245° |
| 2026-05-07 18:27 | 50.91106 | 4.49767 | 125 ft | 2 kts | 245° |
| 2026-05-07 18:27 | 50.91014 | 4.49448 | 131 ft | 68 kts | 245° |
| 2026-05-07 18:28 | 50.90728 | 4.48460 | 135 ft | 127 kts | 245° |
| 2026-05-07 18:28 | 50.90297 | 4.46958 | 163 ft | 169 kts | 245° |
| 2026-05-07 18:28 | 50.89784 | 4.45250 | 670 ft | 172 kts | 245° |
| 2026-05-07 18:28 | 50.89278 | 4.43520 | 1250 ft | 176 kts | 245° |
| 2026-05-07 18:29 | 50.88753 | 4.41761 | 1829 ft | 178 kts | 244° |
| 2026-05-07 18:29 | 50.88070 | 4.40190 | 2568 ft | 167 kts | 218° |
| 2026-05-07 18:29 | 50.86982 | 4.39731 | 3142 ft | 168 kts | 168° |
| 2026-05-07 18:29 | 50.85996 | 4.40716 | 3640 ft | 171 kts | 133° |
| 2026-05-07 18:30 | 50.85209 | 4.42084 | 4215 ft | 169 kts | 125° |
| 2026-05-07 18:30 | 50.84691 | 4.43740 | 4779 ft | 168 kts | 112° |
| 2026-05-07 18:30 | 50.84268 | 4.45491 | 5283 ft | 170 kts | 110° |
| 2026-05-07 18:30 | 50.83871 | 4.47256 | 5785 ft | 172 kts | 109° |
| 2026-05-07 18:31 | 50.83474 | 4.49059 | 6208 ft | 179 kts | 109° |
| 2026-05-07 18:31 | 50.83047 | 4.51020 | 6439 ft | 197 kts | 109° |
| 2026-05-07 18:31 | 50.82579 | 4.53166 | 6720 ft | 214 kts | 109° |
| 2026-05-07 18:31 | 50.82062 | 4.55526 | 6921 ft | 241 kts | 109° |
| 2026-05-07 18:32 | 50.81475 | 4.58177 | 7066 ft | 269 kts | 109° |
| 2026-05-07 18:32 | 50.80851 | 4.61041 | 7016 ft | 277 kts | 109° |
| 2026-05-07 18:32 | 50.80232 | 4.63960 | 7446 ft | 282 kts | 108° |
| 2026-05-07 18:32 | 50.79610 | 4.66911 | 8251 ft | 283 kts | 108° |
| 2026-05-07 18:33 | 50.78980 | 4.69890 | 9002 ft | 286 kts | 109° |
| 2026-05-07 18:33 | 50.78363 | 4.72866 | 9715 ft | 290 kts | 108° |
| 2026-05-07 18:33 | 50.77754 | 4.75946 | 10434 ft | 293 kts | 108° |
| 2026-05-07 18:33 | 50.77003 | 4.78958 | 11103 ft | 296 kts | 114° |
| 2026-05-07 18:34 | 50.76155 | 4.81902 | 11782 ft | 299 kts | 115° |
| 2026-05-07 18:34 | 50.75250 | 4.84893 | 12452 ft | 302 kts | 116° |
| 2026-05-07 18:34 | 50.74339 | 4.87848 | 13103 ft | 305 kts | 116° |
| 2026-05-07 18:34 | 50.73400 | 4.90893 | 13754 ft | 308 kts | 116° |
| 2026-05-07 18:35 | 50.72464 | 4.93946 | 14385 ft | 311 kts | 116° |
| 2026-05-07 18:35 | 50.71523 | 4.97031 | 15002 ft | 313 kts | 116° |
| 2026-05-07 18:35 | 50.70577 | 5.00146 | 15601 ft | 316 kts | 116° |
| 2026-05-07 18:35 | 50.69620 | 5.03300 | 16184 ft | 319 kts | 116° |
| 2026-05-07 18:36 | 50.68668 | 5.06439 | 16765 ft | 322 kts | 116° |
| 2026-05-07 18:36 | 50.67693 | 5.09649 | 17332 ft | 325 kts | 116° |
| 2026-05-07 18:36 | 50.66709 | 5.12893 | 17890 ft | 328 kts | 116° |
| 2026-05-07 18:36 | 50.65720 | 5.16141 | 18436 ft | 331 kts | 116° |
| 2026-05-07 18:37 | 50.64725 | 5.19394 | 18961 ft | 334 kts | 116° |
| 2026-05-07 18:37 | 50.63710 | 5.22701 | 19496 ft | 336 kts | 116° |
| 2026-05-07 18:37 | 50.62680 | 5.26054 | 20010 ft | 339 kts | 116° |
| 2026-05-07 18:37 | 50.61646 | 5.29426 | 20531 ft | 342 kts | 116° |
| 2026-05-07 18:38 | 50.60610 | 5.32810 | 21028 ft | 344 kts | 116° |
| 2026-05-07 18:38 | 50.59571 | 5.36190 | 21511 ft | 347 kts | 116° |
| 2026-05-07 18:38 | 50.58515 | 5.39619 | 21996 ft | 350 kts | 116° |
| 2026-05-07 18:38 | 50.57454 | 5.43058 | 22466 ft | 352 kts | 116° |
| 2026-05-07 18:39 | 50.56372 | 5.46554 | 22881 ft | 356 kts | 116° |
| 2026-05-07 18:39 | 50.55283 | 5.50073 | 22989 ft | 356 kts | 116° |
| 2026-05-07 18:39 | 50.54210 | 5.53534 | 23008 ft | 356 kts | 116° |
| 2026-05-07 18:39 | 50.53124 | 5.57031 | 23009 ft | 355 kts | 116° |
| 2026-05-07 18:40 | 50.52039 | 5.60526 | 23009 ft | 355 kts | 116° |
| 2026-05-07 18:40 | 50.51076 | 5.64122 | 23009 ft | 356 kts | 110° |
| 2026-05-07 18:40 | 50.50294 | 5.67821 | 23010 ft | 356 kts | 107° |
| 2026-05-07 18:40 | 50.49614 | 5.71511 | 23008 ft | 356 kts | 105° |
| 2026-05-07 18:41 | 50.48961 | 5.75269 | 23010 ft | 356 kts | 105° |
| 2026-05-07 18:41 | 50.48311 | 5.79026 | 23008 ft | 356 kts | 105° |
| 2026-05-07 18:41 | 50.47645 | 5.82774 | 23008 ft | 356 kts | 106° |
| 2026-05-07 18:41 | 50.46969 | 5.86473 | 23008 ft | 356 kts | 106° |
| 2026-05-07 18:42 | 50.46273 | 5.90207 | 23006 ft | 356 kts | 107° |
| 2026-05-07 18:42 | 50.45565 | 5.93950 | 23006 ft | 356 kts | 107° |
| 2026-05-07 18:42 | 50.44861 | 5.97643 | 23004 ft | 357 kts | 107° |
| 2026-05-07 18:42 | 50.44149 | 6.01379 | 23006 ft | 357 kts | 107° |
| 2026-05-07 18:43 | 50.43436 | 6.05127 | 23008 ft | 357 kts | 107° |
| 2026-05-07 18:43 | 50.42726 | 6.08864 | 23008 ft | 357 kts | 107° |
| 2026-05-07 18:43 | 50.42024 | 6.12555 | 23006 ft | 357 kts | 107° |
| 2026-05-07 18:43 | 50.41309 | 6.16305 | 23006 ft | 357 kts | 107° |
| 2026-05-07 18:44 | 50.40596 | 6.20032 | 23008 ft | 357 kts | 107° |
| 2026-05-07 18:44 | 50.39881 | 6.23761 | 23009 ft | 357 kts | 107° |
| 2026-05-07 18:44 | 50.39159 | 6.27516 | 23010 ft | 357 kts | 107° |
| 2026-05-07 18:44 | 50.38452 | 6.31188 | 23010 ft | 358 kts | 107° |
| 2026-05-07 18:45 | 50.37730 | 6.34925 | 23010 ft | 358 kts | 107° |
| 2026-05-07 18:45 | 50.37005 | 6.38662 | 23011 ft | 358 kts | 107° |
| 2026-05-07 18:45 | 50.36397 | 6.42432 | 23013 ft | 358 kts | 99° |
| 2026-05-07 18:45 | 50.36118 | 6.46328 | 23014 ft | 358 kts | 95° |
| 2026-05-07 18:46 | 50.35897 | 6.50218 | 23015 ft | 358 kts | 95° |
| 2026-05-07 18:46 | 50.35666 | 6.54044 | 23017 ft | 358 kts | 95° |
| 2026-05-07 18:46 | 50.35312 | 6.57895 | 23014 ft | 357 kts | 106° |
| 2026-05-07 18:46 | 50.34616 | 6.61292 | 23014 ft | 357 kts | 108° |
| 2026-05-07 18:47 | 50.33828 | 6.64987 | 22844 ft | 355 kts | 108° |
| 2026-05-07 18:47 | 50.33040 | 6.68661 | 21839 ft | 367 kts | 109° |
| 2026-05-07 18:47 | 50.32212 | 6.72513 | 20732 ft | 381 kts | 109° |
| 2026-05-07 18:47 | 50.31349 | 6.76528 | 19618 ft | 393 kts | 109° |
| 2026-05-07 18:48 | 50.30475 | 6.80587 | 18797 ft | 394 kts | 109° |
| 2026-05-07 18:48 | 50.29598 | 6.84653 | 18109 ft | 391 kts | 109° |
| 2026-05-07 18:48 | 50.28731 | 6.88667 | 17466 ft | 388 kts | 109° |
| 2026-05-07 18:48 | 50.27878 | 6.92603 | 16849 ft | 385 kts | 109° |
| 2026-05-07 18:49 | 50.27020 | 6.96559 | 16239 ft | 381 kts | 109° |
| 2026-05-07 18:49 | 50.26169 | 7.00468 | 15641 ft | 378 kts | 109° |
| 2026-05-07 18:49 | 50.25321 | 7.04356 | 15052 ft | 374 kts | 109° |
| 2026-05-07 18:49 | 50.24495 | 7.08142 | 14468 ft | 371 kts | 109° |
| 2026-05-07 18:50 | 50.23663 | 7.11953 | 13889 ft | 368 kts | 109° |
| 2026-05-07 18:50 | 50.22842 | 7.15709 | 13326 ft | 365 kts | 109° |
| 2026-05-07 18:50 | 50.22022 | 7.19449 | 12750 ft | 362 kts | 109° |
| 2026-05-07 18:50 | 50.21206 | 7.23161 | 12190 ft | 359 kts | 109° |
| 2026-05-07 18:51 | 50.20395 | 7.26851 | 11618 ft | 355 kts | 109° |
| 2026-05-07 18:51 | 50.19601 | 7.30445 | 11136 ft | 352 kts | 109° |
| 2026-05-07 18:51 | 50.18801 | 7.34058 | 10983 ft | 352 kts | 109° |
| 2026-05-07 18:51 | 50.17998 | 7.37678 | 11009 ft | 353 kts | 109° |
| 2026-05-07 18:52 | 50.17186 | 7.41324 | 11009 ft | 354 kts | 109° |
| 2026-05-07 18:52 | 50.16389 | 7.44909 | 11008 ft | 354 kts | 109° |
| 2026-05-07 18:52 | 50.15580 | 7.48546 | 11009 ft | 354 kts | 109° |
| 2026-05-07 18:52 | 50.14776 | 7.52161 | 11009 ft | 354 kts | 109° |
| 2026-05-07 18:53 | 50.13961 | 7.55814 | 11009 ft | 354 kts | 109° |
| 2026-05-07 18:53 | 50.13145 | 7.59444 | 11009 ft | 354 kts | 109° |
| 2026-05-07 18:53 | 50.12337 | 7.63034 | 11009 ft | 355 kts | 109° |
| 2026-05-07 18:53 | 50.11520 | 7.66656 | 11009 ft | 354 kts | 110° |
| 2026-05-07 18:54 | 50.10407 | 7.70076 | 11009 ft | 353 kts | 124° |
| 2026-05-07 18:54 | 50.09007 | 7.73221 | 11009 ft | 353 kts | 125° |
| 2026-05-07 18:54 | 50.07602 | 7.76369 | 11009 ft | 353 kts | 125° |
| 2026-05-07 18:54 | 50.06210 | 7.79488 | 11009 ft | 353 kts | 125° |
| 2026-05-07 18:55 | 50.04805 | 7.82643 | 11009 ft | 353 kts | 125° |
| 2026-05-07 18:55 | 50.03399 | 7.85799 | 11009 ft | 353 kts | 125° |
| 2026-05-07 18:55 | 50.02012 | 7.88904 | 11009 ft | 354 kts | 125° |
| 2026-05-07 18:55 | 50.00590 | 7.92084 | 11009 ft | 354 kts | 125° |
| 2026-05-07 18:56 | 49.99224 | 7.95211 | 11009 ft | 353 kts | 123° |
| 2026-05-07 18:56 | 49.97945 | 7.98475 | 11009 ft | 353 kts | 120° |
| 2026-05-07 18:56 | 49.96738 | 8.01798 | 11009 ft | 353 kts | 119° |
| 2026-05-07 18:56 | 49.95561 | 8.05154 | 11009 ft | 353 kts | 118° |
| 2026-05-07 18:57 | 49.94389 | 8.08519 | 11009 ft | 353 kts | 118° |
| 2026-05-07 18:57 | 49.93228 | 8.11828 | 11009 ft | 353 kts | 119° |
| 2026-05-07 18:57 | 49.92048 | 8.15150 | 11009 ft | 353 kts | 119° |
| 2026-05-07 18:57 | 49.90850 | 8.18480 | 11009 ft | 353 kts | 119° |
| 2026-05-07 18:58 | 49.89645 | 8.21811 | 11009 ft | 353 kts | 119° |
| 2026-05-07 18:58 | 49.88466 | 8.25165 | 11007 ft | 353 kts | 114° |
| 2026-05-07 18:58 | 49.87963 | 8.28853 | 11009 ft | 352 kts | 88° |
| 2026-05-07 18:58 | 49.88347 | 8.32560 | 11010 ft | 353 kts | 75° |
| 2026-05-07 18:59 | 49.89139 | 8.36181 | 11009 ft | 353 kts | 68° |
| 2026-05-07 18:59 | 49.90119 | 8.39685 | 11009 ft | 353 kts | 65° |
| 2026-05-07 18:59 | 49.91140 | 8.43148 | 11009 ft | 353 kts | 65° |
| 2026-05-07 18:59 | 49.92133 | 8.46631 | 11009 ft | 353 kts | 67° |
| 2026-05-07 19:00 | 49.92716 | 8.50267 | 11007 ft | 353 kts | 87° |
| 2026-05-07 19:00 | 49.92408 | 8.54009 | 11009 ft | 352 kts | 109° |
| 2026-05-07 19:00 | 49.91231 | 8.57319 | 11009 ft | 352 kts | 130° |
| 2026-05-07 19:00 | 49.89343 | 8.59722 | 11009 ft | 351 kts | 152° |
| 2026-05-07 19:01 | 49.87030 | 8.60861 | 11009 ft | 351 kts | 174° |
| 2026-05-07 19:01 | 49.84606 | 8.60588 | 11009 ft | 350 kts | 196° |
| 2026-05-07 19:01 | 49.82408 | 8.58990 | 11013 ft | 350 kts | 212° |
| 2026-05-07 19:01 | 49.80388 | 8.56968 | 11009 ft | 350 kts | 214° |
| 2026-05-07 19:02 | 49.78352 | 8.54887 | 11009 ft | 350 kts | 214° |
| 2026-05-07 19:02 | 49.76312 | 8.52798 | 11009 ft | 350 kts | 214° |
| 2026-05-07 19:02 | 49.74289 | 8.50726 | 11009 ft | 350 kts | 214° |
| 2026-05-07 19:02 | 49.72254 | 8.48641 | 11009 ft | 350 kts | 214° |
| 2026-05-07 19:03 | 49.70237 | 8.46576 | 11009 ft | 350 kts | 214° |
| 2026-05-07 19:03 | 49.68202 | 8.44493 | 11009 ft | 350 kts | 214° |
| 2026-05-07 19:03 | 49.66168 | 8.42412 | 11009 ft | 350 kts | 214° |
| 2026-05-07 19:03 | 49.64138 | 8.40338 | 11009 ft | 350 kts | 214° |
| 2026-05-07 19:04 | 49.62104 | 8.38259 | 11009 ft | 350 kts | 214° |
| 2026-05-07 19:04 | 49.60078 | 8.36190 | 11009 ft | 350 kts | 214° |
| 2026-05-07 19:04 | 49.58071 | 8.34143 | 11009 ft | 350 kts | 214° |
| 2026-05-07 19:04 | 49.56035 | 8.32066 | 11009 ft | 350 kts | 214° |
| 2026-05-07 19:05 | 49.54004 | 8.29996 | 11009 ft | 350 kts | 214° |
| 2026-05-07 19:05 | 49.51967 | 8.27922 | 11009 ft | 350 kts | 214° |
| 2026-05-07 19:05 | 49.49922 | 8.25840 | 11009 ft | 350 kts | 214° |
| 2026-05-07 19:05 | 49.48021 | 8.23584 | 11004 ft | 350 kts | 227° |
| 2026-05-07 19:06 | 49.46693 | 8.20474 | 10966 ft | 347 kts | 248° |
| 2026-05-07 19:06 | 49.46543 | 8.13326 | 9843 ft | 340 kts | 291° |
| 2026-05-07 19:06 | 49.47773 | 8.10251 | 9234 ft | 338 kts | 311° |
| 2026-05-07 19:07 | 49.49313 | 8.07543 | 8513 ft | 331 kts | 307° |
| 2026-05-07 19:07 | 49.50586 | 8.04739 | 7922 ft | 311 kts | 304° |
| 2026-05-07 19:07 | 49.51743 | 8.02098 | 7625 ft | 285 kts | 303° |
| 2026-05-07 19:07 | 49.52829 | 7.99616 | 6977 ft | 275 kts | 303° |
| 2026-05-07 19:08 | 49.53896 | 7.97196 | 6209 ft | 270 kts | 307° |
| 2026-05-07 19:08 | 49.55263 | 7.95257 | 5440 ft | 266 kts | 330° |
| 2026-05-07 19:08 | 49.56970 | 7.94308 | 4664 ft | 263 kts | 348° |
| 2026-05-07 19:08 | 49.58758 | 7.93733 | 4102 ft | 261 kts | 348° |
| 2026-05-07 19:09 | 49.60561 | 7.93153 | 3955 ft | 264 kts | 348° |
| 2026-05-07 19:09 | 49.62276 | 7.92602 | 3925 ft | 242 kts | 348° |
| 2026-05-07 19:09 | 49.63917 | 7.92072 | 3943 ft | 238 kts | 348° |
| 2026-05-07 19:09 | 49.65537 | 7.91547 | 3936 ft | 235 kts | 347° |
| 2026-05-07 19:10 | 49.67114 | 7.91031 | 3935 ft | 234 kts | 347° |
| 2026-05-07 19:10 | 49.68716 | 7.90505 | 3935 ft | 234 kts | 347° |
| 2026-05-07 19:10 | 49.70308 | 7.89983 | 3935 ft | 233 kts | 347° |
| 2026-05-07 19:10 | 49.71885 | 7.89467 | 3935 ft | 233 kts | 347° |
| 2026-05-07 19:11 | 49.73477 | 7.88948 | 3935 ft | 233 kts | 347° |
| 2026-05-07 19:11 | 49.75068 | 7.88432 | 3935 ft | 233 kts | 348° |
| 2026-05-07 19:11 | 49.76636 | 7.87923 | 3935 ft | 233 kts | 347° |
| 2026-05-07 19:11 | 49.78227 | 7.87403 | 3935 ft | 233 kts | 347° |
| 2026-05-07 19:12 | 49.79829 | 7.86996 | 3935 ft | 233 kts | 353° |
| 2026-05-07 19:12 | 49.80909 | 7.86833 | 3935 ft | 233 kts | 354° |
| 2026-05-07 19:12 | 49.83069 | 7.86543 | 3935 ft | 233 kts | 354° |
| 2026-05-07 19:12 | 49.84145 | 7.86401 | 3935 ft | 233 kts | 354° |
| 2026-05-07 19:13 | 49.85766 | 7.86338 | 3926 ft | 233 kts | 9° |
| 2026-05-07 19:13 | 49.87214 | 7.87378 | 3937 ft | 234 kts | 38° |
| 2026-05-07 19:13 | 49.88437 | 7.89061 | 3938 ft | 235 kts | 43° |
| 2026-05-07 19:13 | 49.89556 | 7.90905 | 3929 ft | 235 kts | 57° |
| 2026-05-07 19:14 | 49.90252 | 7.93171 | 3937 ft | 235 kts | 69° |
| 2026-05-07 19:14 | 49.90693 | 7.95606 | 3937 ft | 235 kts | 75° |
| 2026-05-07 19:14 | 49.91175 | 7.98043 | 3935 ft | 235 kts | 70° |
| 2026-05-07 19:14 | 49.91744 | 8.00427 | 3935 ft | 235 kts | 69° |
| 2026-05-07 19:15 | 49.92327 | 8.02792 | 3935 ft | 235 kts | 69° |
| 2026-05-07 19:15 | 49.92911 | 8.05168 | 3935 ft | 235 kts | 69° |
| 2026-05-07 19:15 | 49.93484 | 8.07508 | 3935 ft | 235 kts | 69° |
| 2026-05-07 19:15 | 49.94067 | 8.09895 | 3935 ft | 235 kts | 69° |
| 2026-05-07 19:16 | 49.94648 | 8.12274 | 3935 ft | 235 kts | 69° |
| 2026-05-07 19:16 | 49.95226 | 8.14645 | 3935 ft | 235 kts | 69° |
| 2026-05-07 19:16 | 49.95803 | 8.17010 | 3929 ft | 226 kts | 69° |
| 2026-05-07 19:16 | 49.96336 | 8.19204 | 3926 ft | 207 kts | 69° |
| 2026-05-07 19:17 | 49.96819 | 8.21189 | 3923 ft | 190 kts | 69° |
| 2026-05-07 19:17 | 49.97275 | 8.23066 | 3944 ft | 183 kts | 69° |
| 2026-05-07 19:17 | 49.97722 | 8.24907 | 3808 ft | 182 kts | 69° |
| 2026-05-07 19:17 | 49.98166 | 8.26738 | 3565 ft | 181 kts | 69° |
| 2026-05-07 19:18 | 49.98610 | 8.28570 | 3324 ft | 180 kts | 69° |
| 2026-05-07 19:18 | 49.99052 | 8.30394 | 3067 ft | 180 kts | 69° |
| 2026-05-07 19:18 | 49.99487 | 8.32193 | 2823 ft | 179 kts | 69° |
| 2026-05-07 19:18 | 49.99925 | 8.34007 | 2563 ft | 178 kts | 69° |
| 2026-05-07 19:19 | 50.00360 | 8.35806 | 2325 ft | 177 kts | 69° |
| 2026-05-07 19:19 | 50.00794 | 8.37604 | 2063 ft | 177 kts | 69° |
| 2026-05-07 19:19 | 50.01215 | 8.39350 | 1813 ft | 165 kts | 69° |
| 2026-05-07 19:19 | 50.01597 | 8.40935 | 1589 ft | 153 kts | 69° |
| 2026-05-07 19:20 | 50.01964 | 8.42462 | 1377 ft | 148 kts | 69° |
| 2026-05-07 19:20 | 50.02322 | 8.43950 | 1172 ft | 146 kts | 69° |
| 2026-05-07 19:20 | 50.02671 | 8.45399 | 981 ft | 145 kts | 69° |
| 2026-05-07 19:20 | 50.03025 | 8.46871 | 767 ft | 144 kts | 69° |
| 2026-05-07 19:21 | 50.03373 | 8.48322 | 565 ft | 143 kts | 69° |
| 2026-05-07 19:21 | 50.03721 | 8.49772 | 377 ft | 142 kts | 69° |
| 2026-05-07 19:21 | 50.04057 | 8.51143 | 348 ft | 120 kts | 70° |
| 2026-05-07 19:21 | 50.04275 | 8.52080 | 351 ft | 68 kts | 70° |
| 2026-05-07 19:22 | 50.04379 | 8.52521 | 348 ft | 18 kts | 76° |
| 2026-05-07 19:22 | 50.04390 | 8.52632 | 346 ft | 14 kts | 85° |
| 2026-05-07 19:22 | 50.04391 | 8.52788 | 351 ft | 14 kts | 94° |
| 2026-05-07 19:22 | 50.04378 | 8.52941 | 346 ft | 14 kts | 98° |
| 2026-05-07 19:23 | 50.04364 | 8.53089 | 346 ft | 7 kts | 100° |
| 2026-05-07 19:23 | 50.04362 | 8.53103 | 346 ft | 0 kts | 99° |
| 2026-05-07 19:24 | 50.04362 | 8.53104 | 346 ft | 1 kts | 99° |
| 2026-05-07 19:24 | 50.04355 | 8.53176 | 351 ft | 11 kts | 98° |
| 2026-05-07 19:24 | 50.04362 | 8.53342 | 350 ft | 17 kts | 71° |
| 2026-05-07 19:24 | 50.04396 | 8.53511 | 353 ft | 16 kts | 80° |
| 2026-05-07 19:25 | 50.04408 | 8.53685 | 349 ft | 16 kts | 84° |
| 2026-05-07 19:25 | 50.04420 | 8.53862 | 346 ft | 19 kts | 84° |
| 2026-05-07 19:25 | 50.04436 | 8.54120 | 346 ft | 26 kts | 84° |
| 2026-05-07 19:25 | 50.04453 | 8.54392 | 346 ft | 25 kts | 85° |
| 2026-05-07 19:26 | 50.04407 | 8.54643 | 354 ft | 24 kts | 127° |
| 2026-05-07 19:26 | 50.04277 | 8.54793 | 351 ft | 23 kts | 158° |
| 2026-05-07 19:26 | 50.04125 | 8.54871 | 348 ft | 23 kts | 161° |
| 2026-05-07 19:26 | 50.04022 | 8.54974 | 348 ft | 16 kts | 109° |
| 2026-05-07 19:27 | 50.04046 | 8.55135 | 348 ft | 15 kts | 70° |
| 2026-05-07 19:27 | 50.04084 | 8.55293 | 355 ft | 16 kts | 69° |
| 2026-05-07 19:27 | 50.04130 | 8.55487 | 349 ft | 24 kts | 70° |
| 2026-05-07 19:27 | 50.04189 | 8.55736 | 353 ft | 24 kts | 69° |
| 2026-05-07 19:28 | 50.04213 | 8.55833 | 352 ft | 0 kts | 69° |
| 2026-05-07 19:29 | 50.04216 | 8.55846 | 349 ft | 6 kts | 69° |
| 2026-05-07 19:29 | 50.04239 | 8.55937 | 347 ft | 10 kts | 69° |
| 2026-05-07 19:30 | 50.04262 | 8.56030 | 350 ft | 9 kts | 69° |
| 2026-05-07 19:30 | 50.04311 | 8.56071 | 350 ft | 11 kts | 351° |
| 2026-05-07 19:30 | 50.04399 | 8.56032 | 350 ft | 14 kts | 356° |
| 2026-05-07 19:30 | 50.04457 | 8.56135 | 352 ft | 14 kts | 70° |
| 2026-05-07 19:31 | 50.04490 | 8.56274 | 349 ft | 11 kts | 70° |
| 2026-05-07 19:31 | 50.04470 | 8.56320 | 348 ft | 4 kts | 167° |
| 2026-05-07 19:31 | 50.04445 | 8.56327 | 349 ft | 0 kts | 169° |
| 2026-05-07 19:31 | 50.04442 | 8.56328 | 348 ft | 2 kts | 169° |
| 2026-05-07 19:32 | 50.04436 | 8.56330 | 348 ft | 0 kts | 169° |